Terminal Aerodrome Forecast
Issued by NWS

Home | Current Version | Previous Version | Text Only | Print | Product List | Glossary On
Versions: 1 2 3 4 5 6 7 8 9 10 11 12 13 14 15 16 17 18 19 20 21 22 23 24 25
000
FTUS46 KEKA 220500
TAFCEC
TAF
KCEC 220537Z 2206/2306 14005KT P6SM OVC007
     FM220900 00000KT P6SM OVC005
     FM221700 18006KT P6SM OVC008
     FM221900 19007KT P6SM SCT008=

USA.gov is the U.S. government's official web portal to all federal, state and local government web resources and services.